Time;durP1;ratioP1;P1;durP2;ratioP2;P2;SDS_P1;SDS_P2;PMS_P1;PMS_P2;Temp;Humidity;BMP_temperature;BMP_pressure;BME280_temperature;BME280_humidity;BME280_pressure;Samples;Min_cycle;Max_cycle;Signal;HPM_P1;HPM_P2
2022/03/17 00:02:23;;;;;;;25.70;16.27;;;;;;;13.16;46.30;100333.44;5109513;28;20059;-59
2022/03/17 00:04:51;;;;;;;24.90;16.48;;;;;;;13.15;46.91;100323.78;5110649;28;20479;-60
2022/03/17 00:07:18;;;;;;;22.13;16.00;;;;;;;13.14;46.16;100320.31;5109324;28;20108;-59
2022/03/17 00:09:45;;;;;;;22.15;15.27;;;;;;;13.14;46.50;100320.31;5109286;28;20052;-61
2022/03/17 00:12:13;;;;;;;22.23;15.23;;;;;;;13.14;46.54;100325.59;5110455;28;20120;-59
2022/03/17 00:14:40;;;;;;;21.00;15.07;;;;;;;13.14;46.69;100314.16;5109516;28;20052;-61
2022/03/17 00:17:08;;;;;;;23.25;15.50;;;;;;;13.13;46.50;100318.59;5109144;28;20458;-59
2022/03/17 00:19:36;;;;;;;20.90;15.63;;;;;;;13.12;46.63;100313.41;5110367;28;20488;-59
2022/03/17 00:22:08;;;;;;;25.35;16.63;;;;;;;13.11;46.90;100312.56;5110484;28;20050;-59
2022/03/17 00:24:38;;;;;;;28.38;16.92;;;;;;;13.09;46.78;100311.78;5110470;28;20492;-59
2022/03/17 00:27:08;;;;;;;22.02;15.50;;;;;;;13.11;46.67;100309.03;5110580;28;20062;-59
2022/03/17 00:29:36;;;;;;;26.85;17.17;;;;;;;13.09;46.64;100306.50;5110238;28;20063;-61
2022/03/17 00:32:04;;;;;;;27.35;16.63;;;;;;;13.07;46.72;100308.38;5143180;27;20552;-60
2022/03/17 00:34:31;;;;;;;20.48;15.02;;;;;;;13.07;46.86;100302.25;5110403;28;20051;-61
2022/03/17 00:36:57;;;;;;;27.05;16.38;;;;;;;13.06;46.83;100298.75;5110267;28;20055;-60
2022/03/17 00:39:25;;;;;;;24.00;16.67;;;;;;;13.05;47.03;100297.06;5109870;28;20081;-61
2022/03/17 00:41:51;;;;;;;25.13;16.60;;;;;;;13.05;46.95;100299.72;5110258;28;20044;-59
2022/03/17 00:44:18;;;;;;;20.98;15.27;;;;;;;13.03;46.95;100301.56;5110172;28;20500;-59
2022/03/17 00:46:44;;;;;;;24.40;15.57;;;;;;;13.02;47.05;100300.72;5110259;28;20120;-61
2022/03/17 00:49:12;;;;;;;23.27;16.27;;;;;;;13.01;46.93;100299.03;5110114;28;20047;-60
2022/03/17 00:51:40;;;;;;;22.65;15.15;;;;;;;13.01;47.00;100303.47;5113530;28;20055;-60
2022/03/17 00:54:06;;;;;;;23.33;16.05;;;;;;;13.00;46.98;100304.38;5114537;28;20052;-59
2022/03/17 00:56:33;;;;;;;24.27;16.90;;;;;;;12.98;47.03;100293.91;5113957;28;20104;-60
2022/03/17 00:59:00;;;;;;;23.05;15.80;;;;;;;12.99;47.02;100298.28;5113917;28;20048;-59
2022/03/17 01:01:26;;;;;;;21.95;15.52;;;;;;;12.99;47.08;100297.41;5113615;28;20048;-59
2022/03/17 01:03:53;;;;;;;21.55;15.27;;;;;;;12.98;47.10;100299.19;5112281;28;20056;-60
2022/03/17 01:06:19;;;;;;;22.73;15.95;;;;;;;12.97;47.08;100291.38;5113884;28;20047;-59
2022/03/17 01:08:47;;;;;;;22.92;15.60;;;;;;;12.97;46.99;100299.31;5113610;28;20079;-61
2022/03/17 01:11:14;;;;;;;26.88;16.63;;;;;;;12.96;47.21;100297.59;5113464;28;20047;-58
2022/03/17 01:13:41;;;;;;;21.85;15.45;;;;;;;12.95;47.23;100291.47;5113813;28;20465;-61
2022/03/17 01:16:07;;;;;;;23.95;15.60;;;;;;;12.95;47.18;100296.75;5113755;28;20057;-59
2022/03/17 01:18:34;;;;;;;22.92;16.17;;;;;;;12.95;47.32;100291.47;5113219;28;20086;-60
2022/03/17 01:21:01;;;;;;;22.92;16.02;;;;;;;12.94;47.35;100291.56;5112957;28;20047;-61
2022/03/17 01:23:32;;;;;;;23.73;15.13;;;;;;;12.95;47.16;100298.53;5113264;28;20089;-59
2022/03/17 01:25:58;;;;;;;21.98;15.15;;;;;;;12.93;47.45;100295.13;5113475;28;20048;-60
2022/03/17 01:28:25;;;;;;;21.35;15.75;;;;;;;12.93;47.41;100293.34;5113105;27;20048;-59
2022/03/17 01:30:53;;;;;;;25.98;16.17;;;;;;;12.92;47.62;100283.72;5112768;28;20100;-60
2022/03/17 01:33:20;;;;;;;23.67;16.10;;;;;;;12.92;47.61;100278.41;5113215;28;20060;-60
2022/03/17 01:35:47;;;;;;;21.88;15.40;;;;;;;12.95;47.55;100280.03;5113262;27;20058;-59
2022/03/17 01:38:13;;;;;;;22.77;15.25;;;;;;;12.94;47.66;100276.56;5113161;28;20044;-62
2022/03/17 01:40:41;;;;;;;21.20;15.52;;;;;;;12.94;47.68;100273.06;5112965;28;20108;-61
2022/03/17 01:43:07;;;;;;;23.17;15.77;;;;;;;12.95;47.42;100269.47;5113069;28;20156;-60
2022/03/17 01:45:34;;;;;;;23.55;15.70;;;;;;;12.95;47.58;100267.69;5113075;27;20097;-61
2022/03/17 01:48:00;;;;;;;22.85;15.00;;;;;;;12.95;47.51;100265.03;5112859;28;20096;-60
2022/03/17 01:50:28;;;;;;;22.73;15.38;;;;;;;12.95;47.62;100262.41;5112622;28;20048;-59
2022/03/17 01:52:54;;;;;;;21.38;15.85;;;;;;;12.96;47.71;100256.16;5113035;28;20141;-60
2022/03/17 01:55:21;;;;;;;23.02;15.13;;;;;;;12.97;47.69;100257.03;5113131;28;20059;-59
2022/03/17 01:57:48;;;;;;;22.45;15.13;;;;;;;12.99;47.71;100260.41;5111484;28;20065;-61
2022/03/17 02:00:18;;;;;;;23.60;15.23;;;;;;;12.99;47.63;100258.63;5110838;28;20048;-60
2022/03/17 02:02:50;;;;;;;20.92;14.82;;;;;;;13.01;47.72;100255.91;5111303;28;20087;-59
2022/03/17 02:05:17;;;;;;;22.10;15.38;;;;;;;13.02;47.72;100241.75;5111410;28;20039;-59
2022/03/17 02:07:49;;;;;;;22.80;15.32;;;;;;;13.04;47.89;100247.78;5111459;28;20060;-59
2022/03/17 02:10:15;;;;;;;23.23;15.85;;;;;;;13.05;47.67;100235.41;5112407;28;20051;-58
2022/03/17 02:15:28;;;;;;;21.98;15.20;;;;;;;13.05;47.74;100215.16;5112292;28;20097;-59
2022/03/17 02:17:55;;;;;;;21.60;15.02;;;;;;;13.04;47.87;100213.41;5111123;28;20097;-61
2022/03/17 02:20:24;;;;;;;23.10;15.70;;;;;;;13.04;48.09;100210.78;5112072;28;20052;-58
2022/03/17 02:22:53;;;;;;;23.75;14.93;;;;;;;13.03;48.14;100228.44;5112247;28;20060;-62
2022/03/17 02:25:36;;;;;;;22.27;15.75;;;;;;;13.01;48.39;100222.38;5112111;28;20093;-60
2022/03/17 02:28:05;;;;;;;19.58;14.65;;;;;;;13.03;48.14;100217.00;5112232;28;20055;-58
2022/03/17 02:30:34;;;;;;;21.30;14.98;;;;;;;13.03;48.23;100211.72;5112100;28;20058;-61
2022/03/17 02:33:09;;;;;;;20.73;14.75;;;;;;;13.00;48.66;100219.81;5110826;28;20039;-59
2022/03/17 02:35:37;;;;;;;19.02;14.18;;;;;;;13.02;48.27;100217.97;5110593;28;20043;-60
2022/03/17 02:38:05;;;;;;;20.95;15.00;;;;;;;13.01;48.49;100224.19;5110521;28;20077;-60
2022/03/17 02:40:34;;;;;;;22.73;14.75;;;;;;;13.00;48.41;100220.69;5110211;28;20048;-60
2022/03/17 02:43:04;;;;;;;21.02;15.02;;;;;;;12.99;48.45;100218.13;5111821;28;20047;-61
2022/03/17 02:45:33;;;;;;;23.30;15.52;;;;;;;12.97;48.63;100212.94;5111539;28;20428;-59
2022/03/17 02:48:00;;;;;;;20.73;15.23;;;;;;;12.96;48.41;100205.97;5111975;28;20139;-60
2022/03/17 02:50:27;;;;;;;18.92;14.70;;;;;;;12.95;48.38;100206.03;5110348;28;20059;-62
2022/03/17 02:52:53;;;;;;;21.73;14.30;;;;;;;12.94;48.54;100207.84;5112012;28;20050;-60
2022/03/17 02:55:20;;;;;;;21.95;15.73;;;;;;;12.94;48.55;100212.28;5111871;28;20063;-59
2022/03/17 02:57:47;;;;;;;21.38;15.63;;;;;;;12.94;48.72;100209.63;5111766;28;20047;-59
2022/03/17 03:00:15;;;;;;;22.33;15.38;;;;;;;12.94;48.48;100213.16;5111521;27;20055;-60
2022/03/17 03:02:44;;;;;;;20.40;15.68;;;;;;;12.92;48.79;100215.00;5109995;28;20051;-62
2022/03/17 03:05:17;;;;;;;21.83;15.27;;;;;;;12.94;48.64;100220.22;5110393;28;20092;-60
2022/03/17 03:07:44;;;;;;;19.45;14.85;;;;;;;12.94;48.72;100214.91;5111630;28;20048;-60
2022/03/17 03:10:11;;;;;;;19.85;14.55;;;;;;;12.94;48.82;100218.44;5111146;28;20043;-59
2022/03/17 03:12:37;;;;;;;23.05;16.25;;;;;;;12.94;48.44;100212.28;5111326;28;20437;-61
2022/03/17 03:15:05;;;;;;;22.02;15.20;;;;;;;12.93;48.83;100224.63;5110168;28;20047;-59
2022/03/17 03:17:32;;;;;;;20.85;14.55;;;;;;;12.93;48.90;100221.16;5111519;28;20455;-59
2022/03/17 03:19:59;;;;;;;21.00;15.88;;;;;;;12.93;48.43;100221.16;5111426;28;20100;-59
2022/03/17 03:22:29;;;;;;;20.73;15.32;;;;;;;12.93;48.45;100216.69;5111364;28;20055;-60
2022/03/17 03:24:59;;;;;;;20.17;14.57;;;;;;;12.93;48.49;100221.16;5111549;28;20055;-59
2022/03/17 03:27:27;;;;;;;26.17;15.43;;;;;;;12.93;48.47;100218.50;5110082;28;20055;-59
2022/03/17 03:29:58;;;;;;;23.75;15.60;;;;;;;12.92;48.58;100220.28;5109533;28;20087;-59
2022/03/17 03:32:27;;;;;;;24.38;14.73;;;;;;;12.92;48.64;100217.66;5110107;28;20055;-60
2022/03/17 03:34:54;;;;;;;20.20;15.48;;;;;;;12.94;48.55;100228.13;5111303;28;20043;-59
2022/03/17 03:37:23;;;;;;;22.35;15.75;;;;;;;12.94;48.48;100222.84;5111173;28;20071;-59
2022/03/17 03:39:55;;;;;;;25.42;15.65;;;;;;;12.93;48.91;100226.44;5109566;28;20051;-60
2022/03/17 03:42:23;;;;;;;22.63;16.10;;;;;;;12.95;48.42;100230.69;5110755;28;20120;-59
2022/03/17 03:44:51;;;;;;;18.77;14.80;;;;;;;12.95;48.32;100230.69;5111217;28;20047;-59
2022/03/17 03:47:18;;;;;;;21.70;15.48;;;;;;;12.97;48.31;100238.53;5109640;28;20044;-60
2022/03/17 03:49:45;;;;;;;22.42;15.40;;;;;;;12.97;48.17;100228.78;5110500;28;20461;-60
2022/03/17 03:52:13;;;;;;;22.48;15.20;;;;;;;12.98;48.33;100234.94;5110759;28;20059;-59
2022/03/17 03:54:40;;;;;;;20.63;15.20;;;;;;;13.00;48.34;100235.69;5109503;28;20051;-59
2022/03/17 03:57:07;;;;;;;19.60;15.20;;;;;;;13.01;48.34;100240.06;5110605;28;20095;-60
2022/03/17 03:59:34;;;;;;;24.35;17.02;;;;;;;13.02;48.25;100237.28;5110601;28;20056;-61
2022/03/17 04:02:04;;;;;;;22.80;16.52;;;;;;;13.02;48.46;100244.38;5110627;28;20070;-62
2022/03/17 04:04:34;;;;;;;20.85;15.48;;;;;;;13.03;48.58;100244.31;5109266;28;20050;-62
2022/03/17 04:07:03;;;;;;;22.25;15.10;;;;;;;13.05;48.21;100238.06;5109446;28;20051;-59
2022/03/17 04:09:34;;;;;;;20.85;15.98;;;;;;;13.06;48.37;100247.69;5109270;28;20051;-60
2022/03/17 04:12:02;;;;;;;23.45;16.67;;;;;;;13.07;48.01;100247.59;5110753;28;20047;-60
2022/03/17 04:14:30;;;;;;;22.55;16.35;;;;;;;13.07;48.15;100258.16;5109492;28;20055;-59
2022/03/17 04:16:57;;;;;;;21.00;16.40;;;;;;;13.08;47.96;100254.56;5110559;28;20051;-59
2022/03/17 04:19:24;;;;;;;23.42;16.85;;;;;;;13.09;48.04;100252.78;5110241;28;20066;-60
2022/03/17 04:21:52;;;;;;;21.63;16.40;;;;;;;13.09;47.96;100256.28;5110253;28;20097;-61
2022/03/17 04:24:20;;;;;;;23.02;16.85;;;;;;;13.11;48.05;100256.19;5109007;28;20052;-59
2022/03/17 04:26:47;;;;;;;21.52;16.50;;;;;;;13.12;48.07;100261.38;5113273;28;20054;-59
2022/03/17 04:29:14;;;;;;;25.08;16.67;;;;;;;13.11;48.12;100262.34;5114135;28;20505;-59
2022/03/17 04:31:43;;;;;;;21.58;17.55;;;;;;;13.11;48.13;100264.97;5114428;28;20040;-59
2022/03/17 04:34:10;;;;;;;22.00;15.70;;;;;;;13.12;47.92;100263.19;5113189;28;20062;-60
2022/03/17 04:36:37;;;;;;;23.73;16.55;;;;;;;13.11;48.07;100251.75;5114211;28;20058;-59
2022/03/17 04:39:06;;;;;;;21.83;16.80;;;;;;;13.10;48.04;100257.13;5114559;28;20047;-61
2022/03/17 04:41:32;;;;;;;22.40;17.13;;;;;;;13.10;47.70;100255.34;5112878;28;20514;-59
2022/03/17 04:43:59;;;;;;;21.15;16.15;;;;;;;13.10;48.01;100257.13;5114140;28;20048;-59
2022/03/17 04:46:25;;;;;;;24.17;17.33;;;;;;;13.08;47.66;100266.97;5114084;28;20063;-59
2022/03/17 04:48:52;;;;;;;21.55;16.27;;;;;;;13.06;47.87;100267.06;5095985;28;20059;-60
2022/03/17 04:51:19;;;;;;;22.27;17.02;;;;;;;13.04;48.12;100276.84;5113567;28;20554;-60
2022/03/17 04:53:45;;;;;;;22.92;17.00;;;;;;;13.02;47.92;100273.47;5114162;28;20054;-60
2022/03/17 04:56:16;;;;;;;23.90;16.90;;;;;;;13.00;48.17;100280.59;5114034;28;20048;-63
2022/03/17 04:58:43;;;;;;;21.55;16.40;;;;;;;13.00;48.17;100280.59;5112643;28;20091;-59
2022/03/17 05:01:12;;;;;;;23.10;17.30;;;;;;;12.98;47.98;100280.69;5112601;28;20047;-59
2022/03/17 05:03:39;;;;;;;23.65;16.67;;;;;;;12.99;48.43;100287.69;5112367;28;20043;-59
2022/03/17 05:06:10;;;;;;;21.60;16.88;;;;;;;12.99;48.56;100286.84;5112746;28;20044;-62
2022/03/17 05:08:37;;;;;;;22.58;16.77;;;;;;;13.00;48.18;100285.91;5112639;28;20064;-59
2022/03/17 05:11:04;;;;;;;22.90;17.30;;;;;;;13.00;48.21;100285.91;5113640;28;20059;-59
2022/03/17 05:13:31;;;;;;;20.70;17.02;;;;;;;13.00;48.14;100289.41;5112474;28;20052;-60
2022/03/17 05:15:59;;;;;;;23.17;17.52;;;;;;;13.00;48.34;100286.75;5113681;28;20051;-60
2022/03/17 05:18:26;;;;;;;32.33;17.38;;;;;;;12.99;48.46;100295.63;5114093;28;20047;-60
2022/03/17 05:20:53;;;;;;;27.05;18.33;;;;;;;12.98;48.42;100295.72;5113310;28;20081;-60
2022/03/17 05:23:20;;;;;;;24.13;17.98;;;;;;;12.97;48.69;100296.66;5113887;28;20048;-59
2022/03/17 05:25:50;;;;;;;25.38;18.75;;;;;;;12.97;48.68;100307.22;5112602;28;20047;-59
2022/03/17 05:28:17;;;;;;;24.45;17.75;;;;;;;12.95;48.54;100312.59;5113072;28;20055;-60
2022/03/17 05:30:45;;;;;;;24.05;18.80;;;;;;;12.95;48.73;100306.47;5113689;28;20051;-60
2022/03/17 05:33:12;;;;;;;26.55;19.52;;;;;;;12.95;48.65;100306.47;5113393;28;20506;-59
2022/03/17 05:35:40;;;;;;;22.95;17.95;;;;;;;12.94;48.58;100312.69;5112372;28;20134;-61
2022/03/17 05:38:07;;;;;;;23.65;17.55;;;;;;;12.93;48.83;100324.22;5112403;28;20062;-60
2022/03/17 05:40:35;;;;;;;25.33;18.48;;;;;;;12.90;49.13;100328.72;5112470;28;20062;-61
2022/03/17 05:43:06;;;;;;;24.45;18.88;;;;;;;12.89;49.08;100340.22;5112354;28;20059;-59
2022/03/17 05:45:34;;;;;;;26.08;18.92;;;;;;;12.88;48.98;100327.97;5111834;28;20113;-59
2022/03/17 05:48:04;;;;;;;25.80;19.13;;;;;;;12.86;49.32;100342.22;5111797;28;20056;-59
2022/03/17 05:50:34;;;;;;;28.98;20.27;;;;;;;12.85;49.56;100362.47;5112837;28;20062;-59
2022/03/17 05:53:01;;;;;;;26.88;20.10;;;;;;;12.83;49.49;100351.16;5112271;28;20124;-60
2022/03/17 05:55:28;;;;;;;26.13;19.60;;;;;;;12.81;49.63;100357.44;5112165;28;20052;-60
2022/03/17 05:57:56;;;;;;;31.67;20.45;;;;;;;12.76;50.25;100365.66;5113021;28;20051;-60
2022/03/17 06:00:25;;;;;;;27.88;19.90;;;;;;;12.70;50.57;100380.03;5111915;28;20055;-60
2022/03/17 06:02:52;;;;;;;28.52;20.20;;;;;;;12.64;50.73;100381.22;5095323;28;20100;-60
2022/03/17 06:05:20;;;;;;;27.33;20.83;;;;;;;12.57;51.12;100395.72;5111776;28;21040;-59
2022/03/17 06:07:49;;;;;;;29.98;20.58;;;;;;;12.48;51.71;100401.50;5111387;28;20048;-59
2022/03/17 06:10:18;;;;;;;27.20;20.85;;;;;;;12.35;52.52;100399.56;5110627;28;20380;-61
2022/03/17 06:12:45;;;;;;;26.95;21.42;;;;;;;12.28;52.61;100406.09;5112112;28;20047;-59
2022/03/17 06:15:12;;;;;;;29.83;21.50;;;;;;;12.19;53.00;100407.41;5111341;28;20078;-60
2022/03/17 06:17:44;;;;;;;27.75;20.90;;;;;;;12.11;53.42;100414.88;5112421;27;20051;-60
2022/03/17 06:20:13;;;;;;;32.50;22.13;;;;;;;12.04;53.97;100418.78;5112609;28;20134;-60
2022/03/17 06:22:41;;;;;;;29.35;21.10;;;;;;;11.98;54.06;100422.56;5111340;28;20051;-60
2022/03/17 06:25:10;;;;;;;29.80;22.27;;;;;;;11.93;54.86;100429.88;5111329;28;20043;-60
2022/03/17 06:27:37;;;;;;;28.52;21.48;;;;;;;11.87;54.66;100428.41;5111243;28;20043;-61
2022/03/17 06:30:06;;;;;;;30.80;22.48;;;;;;;11.82;55.92;100436.56;5112202;28;20048;-61
2022/03/17 06:32:39;;;;;;;30.38;22.30;;;;;;;11.76;57.61;100442.16;5111262;28;20535;-60
2022/03/17 06:35:11;;;;;;;31.67;23.58;;;;;;;11.71;58.06;100445.00;5111298;28;20510;-61
2022/03/17 06:37:37;;;;;;;32.70;23.13;;;;;;;11.69;56.74;100461.84;5110984;28;20047;-60
2022/03/17 06:40:08;;;;;;;31.55;22.67;;;;;;;11.65;57.14;100468.19;5112330;28;20046;-59
2022/03/17 06:42:35;;;;;;;35.83;25.73;;;;;;;11.59;57.98;100466.75;5110966;28;20484;-61
2022/03/17 06:45:03;;;;;;;31.63;25.05;;;;;;;11.55;58.44;100466.03;5112016;28;20051;-62
2022/03/17 06:47:29;;;;;;;37.33;24.30;;;;;;;11.49;58.38;100471.63;5111375;28;20105;-60
2022/03/17 06:49:56;;;;;;;35.13;24.55;;;;;;;11.45;59.04;100475.34;5111710;28;20055;-60
2022/03/17 06:52:23;;;;;;;33.65;24.27;;;;;;;11.41;59.23;100484.31;5111620;28;20055;-61
2022/03/17 06:54:50;;;;;;;43.90;24.95;;;;;;;11.38;60.17;100485.31;5112004;28;20040;-59
2022/03/17 06:57:21;;;;;;;37.75;27.15;;;;;;;11.37;60.54;100488.91;5110261;28;20056;-59
2022/03/17 06:59:49;;;;;;;39.63;27.00;;;;;;;11.35;60.65;100496.00;5111360;27;20457;-59
2022/03/17 07:02:16;;;;;;;34.97;25.92;;;;;;;11.34;61.19;100505.69;5111505;28;20047;-59
2022/03/17 07:04:44;;;;;;;36.33;25.00;;;;;;;11.34;61.00;100510.97;5111215;28;20138;-59
2022/03/17 07:07:10;;;;;;;38.97;27.00;;;;;;;11.36;61.62;100510.06;5111721;28;20453;-59
2022/03/17 07:09:37;;;;;;;36.40;26.42;;;;;;;11.36;62.10;100517.97;5109786;28;20047;-60
2022/03/17 07:12:05;;;;;;;38.58;27.42;;;;;;;11.38;62.82;100527.50;5111524;28;20127;-61
2022/03/17 07:14:32;;;;;;;39.58;27.15;;;;;;;11.40;63.28;100527.44;5110151;28;20055;-61
2022/03/17 07:16:58;;;;;;;38.78;27.33;;;;;;;11.43;63.61;100536.03;5111176;28;20051;-60
2022/03/17 07:19:25;;;;;;;36.05;25.70;;;;;;;11.47;63.41;100544.66;5110772;28;20231;-62
2022/03/17 07:21:53;;;;;;;33.83;25.10;;;;;;;11.49;64.04;100561.25;5111296;28;20096;-60
2022/03/17 07:24:20;;;;;;;30.17;21.70;;;;;;;11.52;64.59;100579.59;5109821;28;20047;-60
2022/03/17 07:26:46;;;;;;;17.83;13.48;;;;;;;11.55;63.62;100578.56;5111067;28;20051;-59
2022/03/17 07:29:13;;;;;;;11.43;8.75;;;;;;;11.54;63.19;100585.63;5111142;28;20453;-61
2022/03/17 07:31:39;;;;;;;12.68;6.05;;;;;;;11.51;62.55;100593.66;5110796;28;20097;-61
2022/03/17 07:34:06;;;;;;;8.70;5.50;;;;;;;11.48;61.98;100607.00;5109589;28;20505;-61
2022/03/17 07:36:33;;;;;;;6.68;5.00;;;;;;;11.42;61.88;100617.84;5109834;28;20051;-60
2022/03/17 07:39:03;;;;;;;5.30;4.72;;;;;;;11.37;61.71;100627.75;5110794;28;20520;-59
2022/03/17 07:41:30;;;;;;;5.80;4.70;;;;;;;11.29;61.75;100628.94;5110875;28;20130;-60
2022/03/17 07:43:56;;;;;;;5.05;4.07;;;;;;;11.24;61.74;100636.22;5109716;28;20040;-60
2022/03/17 07:46:23;;;;;;;5.25;4.43;;;;;;;11.18;61.99;100642.59;5110900;28;20093;-60
2022/03/17 07:48:50;;;;;;;5.97;4.68;;;;;;;11.16;62.03;100646.25;5110645;28;20087;-60
2022/03/17 07:51:20;;;;;;;6.35;4.75;;;;;;;11.13;62.33;100656.91;5110676;28;20043;-59
2022/03/17 07:53:47;;;;;;;8.23;5.00;;;;;;;11.08;62.33;100660.63;5109748;28;20078;-59
2022/03/17 07:56:14;;;;;;;7.90;4.78;;;;;;;11.05;62.17;100668.66;5110842;28;20101;-59
2022/03/17 07:58:41;;;;;;;9.40;5.88;;;;;;;11.02;62.24;100657.38;5110403;28;20522;-59
2022/03/17 08:01:08;;;;;;;8.00;4.30;;;;;;;10.99;62.04;100674.19;5113190;28;20059;-60
2022/03/17 08:03:35;;;;;;;10.77;6.20;;;;;;;10.98;62.29;100683.03;5114949;28;20377;-59
2022/03/17 08:06:01;;;;;;;12.60;5.38;;;;;;;10.96;62.27;100684.88;5114905;28;20514;-59
2022/03/17 08:08:28;;;;;;;9.13;5.60;;;;;;;10.94;62.33;100699.88;5114828;28;20509;-62
2022/03/17 08:10:57;;;;;;;10.63;5.50;;;;;;;10.92;62.24;100702.59;5114462;28;20110;-60
2022/03/17 08:13:25;;;;;;;8.32;5.30;;;;;;;10.90;62.32;100699.16;5113275;28;20054;-60
2022/03/17 08:15:52;;;;;;;12.18;5.85;;;;;;;10.89;62.33;100709.78;5114611;27;20096;-62
2022/03/17 08:18:19;;;;;;;8.35;5.30;;;;;;;10.87;62.34;100714.25;5114340;28;20048;-60
2022/03/17 08:20:46;;;;;;;11.63;5.82;;;;;;;10.86;62.53;100710.75;5114730;28;20102;-60
2022/03/17 08:23:19;;;;;;;10.23;5.75;;;;;;;10.85;62.47;100718.72;5114794;28;20043;-60
2022/03/17 08:25:46;;;;;;;;;;;;;;;10.82;62.65;100723.22;5113959;28;20487;-60
2022/03/17 08:28:12;;;;;;;12.35;4.88;;;;;;;10.86;62.14;100723.94;5114334;28;20417;-60
2022/03/17 08:30:39;;;;;;;8.20;5.50;;;;;;;10.84;62.55;100731.03;5114280;28;20461;-60
2022/03/17 08:33:06;;;;;;;10.63;5.00;;;;;;;10.82;62.69;100739.03;5114507;28;20059;-59
2022/03/17 08:35:32;;;;;;;11.73;5.20;;;;;;;10.81;62.58;100749.63;5114457;28;20052;-60
2022/03/17 08:37:59;;;;;;;9.25;4.20;;;;;;;10.78;62.43;100750.59;5114312;28;20116;-61
2022/03/17 08:40:25;;;;;;;9.05;4.28;;;;;;;10.76;62.43;100762.97;5114083;28;20055;-60
2022/03/17 08:42:52;;;;;;;9.32;3.67;;;;;;;10.74;62.17;100767.44;5114290;28;20048;-59
2022/03/17 08:50:49;;;;;;;4.95;3.38;;;;;;;10.70;62.34;100789.56;5113792;28;20051;-60
2022/03/17 08:53:16;;;;;;;8.73;3.40;;;;;;;10.69;62.39;100795.72;5114398;28;20054;-60
2022/03/17 08:55:43;;;;;;;8.63;3.80;;;;;;;10.70;62.47;100802.72;5113977;28;20067;-60
2022/03/17 08:58:10;;;;;;;8.05;3.38;;;;;;;10.71;62.52;100807.06;5114180;28;20047;-63
2022/03/17 09:00:37;;;;;;;6.78;3.25;;;;;;;10.72;62.52;100813.22;5112614;28;20052;-59
2022/03/17 09:03:04;;;;;;;6.55;3.30;;;;;;;10.73;62.54;100815.75;5113693;28;20044;-60
2022/03/17 09:05:33;;;;;;;7.70;3.08;;;;;;;10.75;62.50;100819.19;5112529;28;20083;-59
2022/03/17 09:08:05;;;;;;;8.88;3.03;;;;;;;10.76;62.50;100823.53;5113623;28;20209;-59
2022/03/17 09:10:34;;;;;;;8.73;3.70;;;;;;;10.78;62.45;100832.25;5112901;27;20561;-61
2022/03/17 09:13:07;;;;;;;7.80;2.78;;;;;;;10.82;62.44;100835.59;5113864;28;20047;-59
2022/03/17 09:15:36;;;;;;;8.45;2.85;;;;;;;10.85;62.51;100830.22;5113844;28;20453;-62
2022/03/17 09:18:03;;;;;;;5.45;2.55;;;;;;;10.89;62.47;100837.06;5113207;28;20048;-59
2022/03/17 09:20:30;;;;;;;7.43;2.30;;;;;;;10.92;62.34;100836.94;5113303;28;20050;-61
2022/03/17 09:22:56;;;;;;;8.13;2.42;;;;;;;10.95;62.19;100852.63;5112201;28;20085;-60
2022/03/17 09:25:28;;;;;;;8.32;2.63;;;;;;;10.98;62.09;100849.00;5113395;28;20044;-59
2022/03/17 09:27:56;;;;;;;8.00;2.97;;;;;;;11.00;61.77;100857.72;5112618;28;20080;-59
2022/03/17 09:30:23;;;;;;;6.95;2.63;;;;;;;11.01;61.49;100861.19;5112021;28;20051;-61
2022/03/17 09:32:54;;;;;;;8.30;2.22;;;;;;;11.01;61.43;100869.09;5095146;28;20101;-60
2022/03/17 09:35:22;;;;;;;6.78;2.00;;;;;;;10.99;61.43;100871.78;5113421;28;20415;-59
2022/03/17 09:37:49;;;;;;;9.02;1.95;;;;;;;10.99;61.56;100884.13;5111732;28;20051;-60
2022/03/17 09:40:16;;;;;;;3.75;1.92;;;;;;;10.98;61.36;100892.94;5111906;28;20112;-60
2022/03/17 09:42:43;;;;;;;7.03;2.30;;;;;;;10.95;61.57;100893.91;5112919;28;20054;-60
2022/03/17 09:45:11;;;;;;;6.97;2.13;;;;;;;10.92;61.51;100900.16;5112744;28;20044;-59
2022/03/17 09:47:41;;;;;;;8.07;2.20;;;;;;;10.91;61.67;100902.84;5111830;28;20457;-59
2022/03/17 09:50:10;;;;;;;8.10;1.90;;;;;;;10.88;61.78;100910.88;5111621;28;20084;-59
2022/03/17 09:52:39;;;;;;;6.45;1.92;;;;;;;10.85;61.77;100911.88;5111654;28;20052;-60
2022/03/17 09:55:09;;;;;;;7.03;1.92;;;;;;;10.84;61.76;100917.19;5112779;28;20478;-61
2022/03/17 09:57:38;;;;;;;4.78;1.33;;;;;;;10.81;61.69;100921.66;5112918;28;20051;-61
2022/03/17 10:00:06;;;;;;;8.98;1.58;;;;;;;10.80;61.55;100930.47;5111432;28;20048;-62
2022/03/17 10:02:34;;;;;;;3.35;1.55;;;;;;;10.79;61.56;100931.41;5111487;28;20063;-60
2022/03/17 10:05:01;;;;;;;7.65;1.45;;;;;;;10.81;61.60;100933.97;5112675;28;20450;-61
2022/03/17 10:07:29;;;;;;;6.22;1.33;;;;;;;10.84;61.67;100939.09;5111397;28;20502;-59
2022/03/17 10:09:56;;;;;;;6.60;1.63;;;;;;;10.87;61.96;100946.91;5112108;28;20052;-61
2022/03/17 10:12:23;;;;;;;6.75;1.75;;;;;;;10.92;61.63;100954.63;5112695;28;20104;-60
2022/03/17 10:14:53;;;;;;;6.85;1.95;;;;;;;10.94;61.28;100950.16;5112609;28;20043;-60
2022/03/17 10:17:39;;;;;;;3.53;1.58;;;;;;;10.93;60.71;100958.97;5111421;28;20086;-60
2022/03/17 10:20:18;;;;;;;3.92;1.33;;;;;;;10.96;61.20;100966.78;5110815;28;20054;-59
2022/03/17 10:22:48;;;;;;;5.13;1.55;;;;;;;10.99;60.94;100971.91;5110190;28;20442;-58
2022/03/17 10:25:18;;;;;;;5.28;1.60;;;;;;;10.97;60.70;100979.00;5111350;28;20125;-59
2022/03/17 10:27:45;;;;;;;6.95;1.83;;;;;;;10.98;60.98;100988.63;5111031;28;20047;-60
2022/03/17 10:30:13;;;;;;;4.63;1.55;;;;;;;10.97;60.86;100997.47;5111708;28;20107;-60
2022/03/17 10:32:52;;;;;;;6.05;1.45;;;;;;;10.97;60.84;100999.22;5112076;28;20051;-60
2022/03/17 10:35:24;;;;;;;6.30;1.52;;;;;;;10.95;60.64;101000.16;5112199;28;20048;-59
2022/03/17 10:37:51;;;;;;;6.73;1.57;;;;;;;10.96;60.75;101014.19;5110988;28;20055;-61
2022/03/17 10:40:27;;;;;;;7.05;1.85;;;;;;;10.96;60.80;101014.19;5111623;28;20396;-60
2022/03/17 10:43:12;;;;;;;10.73;1.75;;;;;;;10.94;60.81;101023.91;5111962;28;20377;-59
2022/03/17 10:45:39;;;;;;;6.38;1.50;;;;;;;10.94;60.96;101029.19;5111744;28;20457;-59
2022/03/17 10:48:06;;;;;;;8.90;2.00;;;;;;;10.96;60.94;101035.25;5111931;28;20044;-60
2022/03/17 10:50:42;;;;;;;10.93;1.90;;;;;;;10.94;60.72;101044.97;5111270;28;20449;-60
2022/03/17 10:53:10;;;;;;;7.93;2.03;;;;;;;10.94;60.57;101047.63;5111791;28;20058;-61
2022/03/17 10:55:38;;;;;;;12.20;2.67;;;;;;;10.92;60.61;101044.19;5110116;28;20096;-60
2022/03/17 10:58:17;;;;;;;11.40;2.35;;;;;;;10.88;59.96;101053.97;5110200;28;20065;-59
2022/03/17 11:00:56;;;;;;;9.23;2.05;;;;;;;10.87;60.20;101059.31;5109986;28;20104;-60
2022/03/17 11:03:24;;;;;;;7.70;2.00;;;;;;;10.87;60.40;101064.59;5110494;28;20047;-59
2022/03/17 11:05:51;;;;;;;10.60;2.10;;;;;;;10.85;60.78;101062.00;5111145;28;20058;-59
2022/03/17 11:08:20;;;;;;;13.60;2.08;;;;;;;10.85;60.76;101076.94;5110055;28;20044;-64
2022/03/17 11:10:47;;;;;;;8.10;2.17;;;;;;;10.87;60.90;101080.41;5111291;28;20047;-61
2022/03/17 11:13:13;;;;;;;8.93;1.98;;;;;;;10.89;61.09;101084.69;5110125;28;20074;-60
2022/03/17 11:16:07;;;;;;;10.00;2.30;;;;;;;10.89;60.38;101081.19;5111370;28;20043;-60
2022/03/17 11:18:39;;;;;;;7.80;1.52;;;;;;;10.95;60.72;101086.22;5110024;28;20055;-60
2022/03/17 11:21:25;;;;;;;11.77;2.08;;;;;;;10.96;59.97;101098.50;5109911;28;20048;-59
2022/03/17 11:23:58;;;;;;;10.82;1.80;;;;;;;11.03;60.60;101101.75;5109982;28;20101;-59
2022/03/17 11:26:38;;;;;;;10.93;2.42;;;;;;;11.07;60.22;101112.09;5111590;28;20476;-62
2022/03/17 11:29:13;;;;;;;9.40;2.00;;;;;;;11.13;60.00;101118.06;5111285;28;20044;-60